Aleknagik, AK

12:57 PM AKDT on August 24, 2016 (GMT -0800)
Dillingham | | Change Station

Elev 95 ft 59.04 °N, 158.51 °W | Updated 1 minute ago

Overcast
Overcast
59 °F
Feels Like 59 °F
N
9
Wind Variable Wind from SE

Today
High -- | Low -- °F
--% Chance of Precip.
Yesterday
High -- | Low -- °F
Precip. -- in
Pressure 30.06 in
Visibility 6.0 miles
Clouds Overcast 600 ft
Dew Point 58 °F
Humidity 96%
Rainfall 0.00 in
Snow Depth Not available.
7:14 AM 9:57 PM
Waning Gibbous, 53% visible
METAR PADL 242056Z 13008KT 6SM BR OVC006 15/14 A3005 RMK AO2 RAE25 SLP179 P0000 60000 T01500144 51009
Pressure 30.06 in
Visibility 6.0 miles
Clouds Overcast 600 ft
Dew Point 58 °F
Humidity 96%
Rainfall 0.00 in
Snow Depth Not available.
7:14 AM 9:57 PM
Waning Gibbous, 53% visible
METAR PADL 242056Z 13008KT 6SM BR OVC006 15/14 A3005 RMK AO2 RAE25 SLP179 P0000 60000 T01500144 51009

10-Day Weather Forecast

Almanac

Astronomy

Aug. 24, 2016 Rise Set
Actual Time
Civil Twilight
Nautical Twilight
Astronomical Twilight
Moon
Length of Visible Light
Length of Day
Tomorrow will be .
, % of the Moon is Illuminated

Today's Extremes

State Highs State Lows

Community

WunderPhotos

Upload Photos

1,934,710 photos uploaded!

WunderBlog® & News

Nearby

Air Quality

  Air Quality AQ Index Pollutant
Not available.

Snow Depth

Station Depth Elevation

Earthquake Activity

City Distance Mag. Time & Date
Minimum magnitude displayed is 2.5.

Coastal Water Temperatures

Place Temperature

Stations

Nearby Weather Stations

Station Location Temp. Windchill Dew Point Humidity Wind Precip. Elev Updated Type
                   

Watches & Warnings

There are currently no watches in effect.